Flight Track Log - Related Links

Times and Time Zones

All times are in EDT time to prevent confusion due to time zone crossing. See the AWI3759 flight status page for this flight to view local times or setup timezone preferences in your user account.

Time Position Orientation Groundspeed Altitude Reporting Facility
EDT Latitude Longitude Course Direction KTS MPH feet Rate Location/Type
Wed 05:08:16 PM 43.6333 -79.6167 194° South 160 184 1,700  Level Toronto Center
Wed 05:09:16 PM 43.6000 -79.6833 235° Southwest 200 230 3,400 1,850 Climbing Toronto Center
Wed 05:10:00 PM 43.3730 -79.6841 188° South  Level Estimated
Wed 05:10:16 PM 43.5500 -79.7000 194° South 230 265 5,400  Level Toronto Center
Wed 05:11:00 PM 43.2643 -79.7003 185° South  Level FlightAware Approximate
Wed 05:11:16 PM 43.4833 -79.7000 180° South 250 288 8,400  Level Toronto Center
Wed 05:12:00 PM 43.1624 -79.7116 185° South  Level FlightAware Approximate
Wed 05:12:16 PM 43.4167 -79.7000 180° South 250 288 10,700  Level Toronto Center
Wed 05:13:00 PM 43.0619 -79.7349 194° South  Level FlightAware Approximate
Wed 05:13:16 PM 43.3333 -79.7167 188° South 260 299 12,500  Level Toronto Center
Wed 05:14:16 PM 43.2667 -79.7167 180° South 270 311 14,200 1,500 Climbing Toronto Center
Wed 05:15:16 PM 43.1833 -79.7167 180° South 290 334 15,500 1,450 Climbing Toronto Center
Wed 05:16:16 PM 43.0833 -79.7167 180° South 320 368 17,100 1,600 Climbing Toronto Center
Wed 05:17:16 PM 43.0000 -79.7500 196° South 320 368 18,700 1,350 Climbing Toronto Center
Wed 05:18:16 PM 42.9167 -79.7500 180° South 330 380 19,800 1,200 Climbing Toronto Center
Wed 05:19:16 PM 42.8167 -79.7667 187° South 340 391 21,100 1,100 Climbing Toronto Center
Wed 05:20:16 PM 42.7167 -79.8000 194° South 340 391 22,000 950 Climbing Toronto Center
Wed 05:21:16 PM 42.6333 -79.8167 188° South 350 403 23,000 931 Climbing Toronto Center
Wed 05:22:12 PM 42.5581 -79.8531 200° South 353 406 23,800 931 Climbing Cleveland Center
Wed 05:23:12 PM 42.4517 -79.8769 189° South 353 406 24,800 900 Climbing Cleveland Center
Wed 05:24:12 PM 42.3667 -79.9369 208° Southwest 353 406 25,600 750 Climbing Cleveland Center
Wed 05:25:12 PM 42.2731 -79.9828 200° South 353 406 26,300 700 Climbing Cleveland Center
Wed 05:26:12 PM 42.1756 -80.0283 199° South 362 417 27,000 550 Climbing Cleveland Center
Wed 05:27:12 PM 42.0903 -80.0711 200° South 362 417 27,400 550 Climbing Cleveland Center
Wed 05:28:12 PM 41.9944 -80.1167 199° South 369 425 28,100 650 Climbing Cleveland Center
Wed 05:29:12 PM 41.8989 -80.1619 199° South 369 425 28,700 450 Climbing Cleveland Center
Wed 05:30:12 PM 41.8031 -80.2072 199° South 369 425 29,000 450 Climbing Cleveland Center
Wed 05:31:12 PM 41.7053 -80.2550 200° South 369 425 29,600 800 Climbing Cleveland Center
Wed 05:32:12 PM 41.6031 -80.3028 199° South 364 419 30,600 850 Climbing Cleveland Center
Wed 05:33:12 PM 41.5117 -80.3447 199° South 359 413 31,300 600 Climbing Cleveland Center
Wed 05:34:12 PM 41.4178 -80.3894 200° South 359 413 31,800 350 Climbing Cleveland Center
Wed 05:35:12 PM 41.3242 -80.4367 201° Southwest 364 419 32,000 100 Climbing Cleveland Center
Wed 05:36:12 PM 41.2283 -80.4783 198° South 364 419 32,000  Level Cleveland Center
Wed 05:37:12 PM 41.1303 -80.5253 200° South 370 426 32,000  Level Cleveland Center
Wed 05:38:12 PM 41.0364 -80.5694 200° South 370 426 32,000  Level Cleveland Center
Wed 05:39:12 PM 40.9406 -80.6133 199° South 370 426 32,000  Level Cleveland Center
Wed 05:40:12 PM 40.8531 -80.6544 200° South 370 426 32,000  Level Cleveland Center
Wed 05:41:12 PM 40.7550 -80.6983 199° South 375 432 32,000  Level Cleveland Center
Wed 05:42:12 PM 40.6528 -80.7472 200° South 370 426 32,000  Level Cleveland Center
Wed 05:43:12 PM 40.5653 -80.7853 198° South 370 426 32,000  Level Cleveland Center
Wed 05:44:12 PM 40.4692 -80.8314 200° South 370 426 32,000  Level Cleveland Center
Wed 05:45:12 PM 40.3733 -80.8747 199° South 370 426 32,000  Level Cleveland Center
Wed 05:46:12 PM 40.2750 -80.9178 198° South 370 426 32,000  Level Cleveland Center
Wed 05:48:15 PM 40.0728 -81.0108 199° South 368 423 32,000  Level Indianapolis Center
Wed 05:49:17 PM 39.9747 -81.0547 199° South 368 423 32,000  Level Indianapolis Center
Wed 05:50:19 PM 39.8739 -81.1003 199° South 372 428 32,000  Level Indianapolis Center
Wed 05:51:21 PM 39.7769 -81.1444 199° South 368 423 32,000  Level Indianapolis Center
Wed 05:52:22 PM 39.6781 -81.1883 199° South 374 430 32,000  Level Indianapolis Center
Wed 05:53:24 PM 39.5606 -81.2406 199° South 371 427 32,000  Level Indianapolis Center
Wed 05:54:26 PM 39.4617 -81.2833 198° South 374 430 32,000  Level Indianapolis Center
Wed 05:55:28 PM 39.3639 -81.3275 199° South 373 429 32,000  Level Indianapolis Center
Wed 05:56:30 PM 39.2656 -81.3711 199° South 373 429 32,000  Level Indianapolis Center
Wed 05:57:32 PM 39.1672 -81.4147 199° South 374 430 32,000  Level Indianapolis Center
Wed 05:58:33 PM 39.0700 -81.4567 199° South 370 426 32,000  Level Indianapolis Center
Wed 05:59:35 PM 38.9514 -81.5092 199° South 375 432 32,000  Level Indianapolis Center
Wed 06:00:37 PM 38.8553 -81.5525 199° South 372 428 32,000  Level Indianapolis Center
Wed 06:01:39 PM 38.7497 -81.5992 199° South 372 428 32,000  Level Indianapolis Center
Wed 06:02:40 PM 38.6486 -81.6367 196° South 375 432 32,000  Level Indianapolis Center
Wed 06:03:42 PM 38.5581 -81.6561 190° South 384 442 32,000  Level Indianapolis Center
Wed 06:04:44 PM 38.4339 -81.6844 190° South 380 437 32,000  Level Indianapolis Center
Wed 06:05:46 PM 38.3289 -81.7083 190° South 385 443 32,000  Level Indianapolis Center
Wed 06:06:47 PM 38.2242 -81.7328 190° South 384 442 32,000  Level Indianapolis Center
Wed 06:07:49 PM 38.1192 -81.7561 190° South 384 442 32,000  Level Indianapolis Center
Wed 06:08:51 PM 38.0153 -81.7803 190° South 382 440 32,000  Level Indianapolis Center
Wed 06:09:52 PM 37.9111 -81.8128 194° South 386 444 32,000  Level Indianapolis Center
Wed 06:10:54 PM 37.7936 -81.8567 196° South 386 444 32,000  Level Indianapolis Center
Wed 06:11:56 PM 37.6872 -81.8356 171° South 395 455 32,000  Level Indianapolis Center
Wed 06:12:57 PM 37.5833 -81.7897 161° South 395 455 32,000  Level Indianapolis Center
Wed 06:13:59 PM 37.4794 -81.7444 161° South 394 453 32,000 -677 Level Indianapolis Center
Wed 06:15:01 PM 37.3553 -81.6933 162° South 399 459 30,600 -1,403 Descending Indianapolis Center
Wed 06:16:03 PM 37.2431 -81.6686 170° South 406 467 29,100 -1,268 Descending Indianapolis Center
Wed 06:17:04 PM 37.1344 -81.6472 171° South 398 458 28,000 -683 Descending Indianapolis Center
Wed 06:18:06 PM 37.0344 -81.6378 176° South 367 422 27,700 -919 Descending Indianapolis Center
Wed 06:19:08 PM 36.9297 -81.6350 179° South 373 429 26,100 -1,512 Descending Indianapolis Center
Wed 06:20:09 PM 36.8189 -81.6308 178° South 392 451 24,600 -1,024 Descending Indianapolis Center
Wed 06:21:11 PM 36.7081 -81.6258 178° South 396 456 24,000 -290 Descending Indianapolis Center
Wed 06:22:13 PM 36.5881 -81.6222 179° South 372 428 24,000  Level Indianapolis Center
Wed 06:23:20 PM 36.4953 -81.6164 177° South 353 406 24,000  Level Atlanta Center
Wed 06:24:20 PM 36.3925 -81.5911 169° South 341 392 24,000 -750 Level Atlanta Center
Wed 06:25:20 PM 36.2942 -81.5658 168° South 346 398 22,500 -1,750 Descending Atlanta Center
Wed 06:26:20 PM 36.1914 -81.5406 169° South 367 422 20,500 -2,000 Descending Atlanta Center
Wed 06:27:20 PM 36.0969 -81.5153 168° South 372 428 18,500 -2,000 Descending Atlanta Center
Wed 06:28:20 PM 35.9983 -81.4900 168° South 364 419 16,500 -2,061 Descending Atlanta Center
Wed 06:28:59 PM 35.9356 -81.4767 170° South 352 405 15,100 -2,000 Descending Atlanta Center
Wed 06:29:20 PM 35.9042 -81.4675 167° South 349 402 14,500 -1,821 Descending Atlanta Center
Wed 06:29:55 PM 35.8494 -81.4539 169° South 346 398 13,400 -1,900 Descending Atlanta Center
Wed 06:30:20 PM 35.8161 -81.4447 167° South 343 395 12,600 -1,672 Descending Atlanta Center
Wed 06:30:56 PM 35.7658 -81.4333 170° South 302 348 11,700 -1,500 Descending Atlanta Center
Wed 06:31:20 PM 35.7342 -81.4242 167° South 310 357 11,100 -689 Descending Atlanta Center
Wed 06:31:57 PM 35.6903 -81.4128 168° South 269 310 11,000 -100 Descending Atlanta Center
Wed 06:32:20 PM 35.6608 -81.4061 170° South 284 327 11,000 -90 Level Atlanta Center
Wed 06:33:04 PM 35.6039 -81.3797 159° South 279 321 10,900 -500 Descending Atlanta Center
Wed 06:33:20 PM 35.5831 -81.3781 176° South 279 321 10,500 -1,770 Descending Atlanta Center
Wed 06:34:05 PM 35.5325 -81.3567 161° South 275 316 9,100 -1,700 Descending Atlanta Center
Wed 06:34:20 PM 35.5094 -81.3547 176° South 279 321 8,800 -1,075 Descending Atlanta Center
Wed 06:35:12 PM 35.4667 -81.3078 138° Southeast 243 280 7,900 -950 Descending Atlanta Center
Wed 06:36:01 PM 35.4611 -81.2467 96° East 238 274 7,200 -794 Descending Atlanta Center
Wed 06:36:20 PM 35.4564 -81.2189 102° East 220 253 7,000 -492 Descending Atlanta Center
Wed 06:37:02 PM 35.4531 -81.1631 94° East 244 281 6,700 -600 Descending Atlanta Center
Wed 06:37:20 PM 35.4503 -81.1325 96° East 237 273 6,400 -984 Descending Atlanta Center
Wed 06:38:03 PM 35.4489 -81.0764 92° East 240 276 5,700 -900 Descending Atlanta Center
Wed 06:38:20 PM 35.4461 -81.0536 99° East 237 273 5,500 -689 Descending Atlanta Center
Wed 06:39:04 PM 35.4431 -81.0078 95° East 185 213 5,000 -486 Descending Atlanta Center
Wed 06:40:11 PM 35.3964 -80.9789 153° Southeast 178 205 4,600 -844 Descending Atlanta Center
Wed 06:41:12 PM 35.3442 -80.9808 182° South 174 200 3,200 -1,377 Descending Atlanta Center

Login

Don't have an account? Register now (free) for customized features, flight alerts, and more!